createdAt,value
2023-02-14T00:00:09.126Z,27.10
2023-02-14T00:02:17.195Z,25.40
2023-02-14T00:04:25.077Z,26.85
2023-02-14T00:06:35.674Z,27.58
2023-02-14T00:08:47.076Z,26.20
2023-02-14T00:10:55.079Z,28.35
2023-02-14T00:13:02.917Z,29.10
2023-02-14T00:15:25.609Z,29.38
2023-02-14T00:17:33.622Z,27.33
2023-02-14T00:19:41.710Z,27.10
2023-02-14T00:21:50.210Z,28.05
2023-02-14T00:24:01.065Z,26.52
2023-02-14T00:26:09.170Z,28.15
2023-02-14T00:28:17.851Z,27.00
2023-02-14T00:30:26.053Z,27.73
2023-02-14T00:32:34.454Z,27.63
2023-02-14T00:34:46.985Z,25.50
2023-02-14T00:36:55.252Z,28.65
2023-02-14T00:39:07.100Z,25.58
2023-02-14T00:41:19.403Z,27.65
2023-02-14T00:43:27.796Z,29.35
2023-02-14T00:45:35.838Z,28.58
2023-02-14T00:47:43.961Z,28.40
2023-02-14T00:49:52.715Z,27.10
2023-02-14T00:52:00.720Z,26.92
2023-02-14T00:54:11.414Z,27.35
2023-02-14T00:56:20.190Z,27.63
2023-02-14T00:58:28.401Z,26.48
2023-02-14T01:00:36.858Z,27.33
2023-02-14T01:02:44.946Z,27.45
2023-02-14T01:04:52.868Z,27.23
2023-02-14T01:07:02.012Z,26.15
2023-02-14T01:09:12.704Z,26.17
2023-02-14T01:11:23.067Z,27.67
2023-02-14T01:13:30.880Z,27.45
2023-02-14T01:15:42.566Z,27.25
2023-02-14T01:17:50.642Z,26.95
2023-02-14T01:19:58.765Z,26.70
2023-02-14T01:22:06.756Z,28.27
2023-02-14T01:24:18.122Z,27.75
2023-02-14T01:26:27.666Z,28.45
2023-02-14T01:28:35.686Z,26.63
2023-02-14T01:30:45.936Z,27.38
2023-02-14T01:32:53.932Z,26.27
2023-02-14T01:35:02.037Z,26.40
2023-02-14T01:37:10.332Z,26.80
2023-02-14T01:39:22.265Z,28.20
2023-02-14T01:41:32.767Z,28.08
2023-02-14T01:44:03.568Z,28.13
2023-02-14T01:46:12.784Z,28.80
2023-02-14T01:48:24.057Z,28.35
2023-02-14T01:50:40.023Z,28.75
2023-02-14T01:52:52.530Z,28.92
2023-02-14T01:55:09.044Z,26.50
2023-02-14T01:57:20.832Z,27.58
2023-02-14T01:59:33.658Z,29.05
2023-02-14T02:01:43.120Z,27.05
2023-02-14T02:03:54.980Z,30.25
2023-02-14T02:06:08.804Z,28.25
2023-02-14T02:08:17.396Z,27.85
2023-02-14T02:10:30.761Z,28.60
2023-02-14T02:12:39.153Z,26.48
2023-02-14T02:14:48.876Z,26.95
2023-02-14T02:17:13.708Z,29.10
2023-02-14T02:20:05.733Z,27.48
2023-02-14T02:22:40.353Z,28.80
2023-02-14T02:24:57.545Z,29.60
2023-02-14T02:27:34.372Z,26.52
2023-02-14T02:30:12.406Z,28.95
2023-02-14T02:32:50.379Z,27.60
2023-02-14T02:35:18.562Z,26.35
2023-02-14T02:37:39.065Z,27.27
2023-02-14T02:40:06.075Z,27.27
2023-02-14T02:42:24.495Z,27.70
2023-02-14T02:44:44.155Z,27.35
2023-02-14T02:47:04.284Z,28.73
2023-02-14T02:49:40.548Z,27.88
2023-02-14T02:52:13.965Z,28.63
2023-02-14T02:54:30.792Z,30.25
2023-02-14T02:56:49.954Z,30.27
2023-02-14T02:59:01.950Z,29.33
2023-02-14T03:01:14.962Z,27.73
2023-02-14T03:03:38.614Z,28.50
2023-02-14T03:05:47.001Z,28.65
2023-02-14T03:07:57.565Z,30.83
2023-02-14T03:10:12.473Z,31.08
2023-02-14T03:12:38.469Z,28.60
2023-02-14T03:14:53.116Z,28.45
2023-02-14T03:17:08.486Z,28.60
2023-02-14T03:19:57.178Z,26.55
2023-02-14T03:22:15.346Z,27.17
2023-02-14T03:24:45.383Z,28.48
2023-02-14T03:27:00.270Z,27.20
2023-02-14T03:29:16.379Z,27.73
2023-02-14T03:31:31.554Z,27.25
2023-02-14T03:33:49.673Z,26.98
2023-02-14T03:36:03.173Z,29.65
2023-02-14T03:38:15.623Z,29.45
2023-02-14T03:40:31.662Z,30.73
2023-02-14T03:42:45.184Z,31.13
2023-02-14T03:44:56.817Z,39.50
2023-02-14T03:47:10.586Z,40.88
2023-02-14T03:49:24.838Z,32.38
2023-02-14T03:51:34.921Z,26.98
2023-02-14T03:53:47.492Z,27.85
2023-02-14T03:56:05.529Z,26.33
2023-02-14T03:58:19.833Z,25.60
2023-02-14T04:00:28.345Z,27.40
2023-02-14T04:02:40.839Z,27.13
2023-02-14T04:04:51.363Z,26.30
2023-02-14T04:06:59.192Z,28.48
2023-02-14T04:09:07.357Z,28.67
2023-02-14T04:11:18.087Z,28.17
2023-02-14T04:13:26.018Z,26.35
2023-02-14T04:15:33.883Z,29.60
2023-02-14T04:17:54.332Z,27.10
2023-02-14T04:20:02.156Z,27.30
2023-02-14T04:22:10.221Z,26.10
2023-02-14T04:24:18.243Z,27.65
2023-02-14T04:26:28.604Z,27.33
2023-02-14T04:28:36.936Z,30.20
2023-02-14T04:30:44.944Z,32.72
2023-02-14T04:32:53.189Z,36.20
2023-02-14T04:35:01.041Z,36.60
2023-02-14T04:37:09.714Z,34.70
2023-02-14T04:39:17.709Z,31.17
2023-02-14T04:41:28.298Z,28.95
2023-02-14T04:43:36.131Z,26.80
2023-02-14T04:45:44.194Z,26.60
2023-02-14T04:47:52.245Z,26.05
2023-02-14T04:50:00.543Z,26.58
2023-02-14T04:52:09.564Z,28.45
2023-02-14T04:54:17.515Z,27.10
2023-02-14T04:56:28.707Z,27.05
2023-02-14T04:58:39.047Z,29.65
2023-02-14T05:00:47.073Z,30.92
2023-02-14T05:02:54.897Z,30.75
2023-02-14T05:05:02.763Z,30.73
2023-02-14T05:07:10.843Z,29.10
2023-02-14T05:09:19.432Z,28.67
2023-02-14T05:11:30.588Z,27.50
2023-02-14T05:13:38.486Z,30.63
2023-02-14T05:15:47.768Z,31.38
2023-02-14T05:17:55.680Z,29.92
2023-02-14T05:20:03.670Z,28.92
2023-02-14T05:22:11.504Z,27.30
2023-02-14T05:24:19.751Z,27.33
2023-02-14T05:26:30.726Z,26.35
2023-02-14T05:28:41.098Z,25.40
2023-02-14T05:30:49.239Z,28.35
2023-02-14T05:32:57.981Z,28.55
2023-02-14T05:35:06.318Z,29.55
2023-02-14T05:37:16.186Z,30.05
2023-02-14T05:39:24.167Z,28.25
2023-02-14T05:41:46.635Z,27.85
2023-02-14T05:43:57.916Z,29.33
2023-02-14T05:46:05.904Z,28.80
2023-02-14T05:48:13.861Z,24.70
2023-02-14T05:50:22.383Z,23.08
2023-02-14T05:52:33.650Z,25.77
2023-02-14T05:54:41.443Z,23.27
2023-02-14T05:56:51.883Z,28.17
2023-02-14T05:58:59.776Z,27.17
2023-02-14T06:01:08.220Z,26.45
2023-02-14T06:03:16.041Z,26.30
2023-02-14T06:05:24.013Z,25.90
2023-02-14T06:07:32.025Z,24.52
2023-02-14T06:09:40.022Z,24.60
2023-02-14T06:11:47.789Z,25.52
2023-02-14T06:13:58.238Z,26.70
2023-02-14T06:16:06.738Z,24.88
2023-02-14T06:18:14.788Z,25.20
2023-02-14T06:20:24.312Z,23.65
2023-02-14T06:22:32.143Z,26.02
2023-02-14T06:24:40.188Z,27.58
2023-02-14T06:26:48.162Z,26.10
2023-02-14T06:29:00.283Z,24.58
2023-02-14T06:31:08.604Z,27.20
2023-02-14T06:33:16.449Z,33.30
2023-02-14T06:35:24.248Z,28.50
2023-02-14T06:37:32.107Z,30.75
2023-02-14T06:39:39.902Z,29.13
2023-02-14T06:41:48.044Z,28.33
2023-02-14T06:43:58.655Z,27.50
2023-02-14T06:46:07.398Z,28.10
2023-02-14T06:48:15.187Z,29.20
2023-02-14T06:50:23.061Z,27.98
2023-02-14T06:52:30.816Z,27.88
2023-02-14T06:54:38.859Z,26.17
2023-02-14T06:56:46.927Z,26.63
2023-02-14T06:58:54.823Z,24.90
2023-02-14T07:01:05.339Z,26.77
2023-02-14T07:03:13.880Z,25.65
2023-02-14T07:05:22.091Z,25.73
2023-02-14T07:07:30.007Z,27.73
2023-02-14T07:09:37.857Z,26.50
2023-02-14T07:11:46.295Z,25.75
2023-02-14T07:13:54.242Z,27.40
2023-02-14T07:16:02.223Z,27.40
2023-02-14T07:18:12.847Z,26.17
2023-02-14T07:20:21.212Z,25.80
2023-02-14T07:22:30.366Z,26.58
2023-02-14T07:24:38.404Z,26.42
2023-02-14T07:26:46.203Z,25.35
2023-02-14T07:28:57.396Z,27.50
2023-02-14T07:31:06.046Z,26.05
2023-02-14T07:33:16.889Z,26.30
2023-02-14T07:35:24.668Z,25.35
2023-02-14T07:37:32.515Z,26.45
2023-02-14T07:39:40.432Z,24.67
2023-02-14T07:41:48.179Z,25.25
2023-02-14T07:44:01.696Z,26.48
2023-02-14T07:46:09.833Z,28.50
2023-02-14T07:48:20.280Z,27.90
2023-02-14T07:50:28.587Z,29.25
2023-02-14T07:52:39.037Z,29.98
2023-02-14T07:54:47.210Z,31.75
2023-02-14T07:56:55.338Z,34.05
2023-02-14T07:59:03.420Z,34.55
2023-02-14T08:01:12.730Z,35.45
2023-02-14T08:03:23.133Z,29.95
2023-02-14T08:05:31.200Z,26.23
2023-02-14T08:07:39.490Z,28.65
2023-02-14T08:09:47.364Z,27.45
2023-02-14T08:12:08.387Z,26.98
2023-02-14T08:14:16.542Z,26.65
2023-02-14T08:16:24.475Z,27.65
2023-02-14T08:18:36.822Z,24.60
2023-02-14T08:20:44.908Z,26.38
2023-02-14T08:22:53.805Z,25.65
2023-02-14T08:25:01.860Z,24.77
2023-02-14T08:27:09.832Z,24.90
2023-02-14T08:29:17.699Z,23.55
2023-02-14T08:31:35.082Z,23.48
2023-02-14T08:33:46.674Z,23.25
2023-02-14T08:35:54.984Z,24.73
2023-02-14T08:38:05.764Z,22.90
2023-02-14T08:40:14.463Z,23.70
2023-02-14T08:42:22.499Z,22.88
2023-02-14T08:44:30.762Z,26.00
2023-02-14T08:46:39.057Z,26.95
2023-02-14T08:48:50.101Z,24.33
2023-02-14T08:50:58.075Z,25.65
2023-02-14T08:53:11.296Z,24.10
2023-02-14T08:55:19.267Z,25.25
2023-02-14T08:57:27.880Z,25.17
2023-02-14T08:59:35.705Z,23.98
2023-02-14T09:01:43.864Z,24.55
2023-02-14T09:03:54.426Z,24.10
2023-02-14T09:06:08.454Z,24.33
2023-02-14T09:08:16.666Z,25.08
2023-02-14T09:10:24.983Z,25.00
2023-02-14T09:12:32.860Z,25.63
2023-02-14T09:14:41.782Z,24.20
2023-02-14T09:16:50.015Z,22.48
2023-02-14T09:19:00.938Z,23.23
2023-02-14T09:21:10.774Z,24.33
2023-02-14T09:23:18.942Z,24.92
2023-02-14T09:25:27.094Z,23.42
2023-02-14T09:27:35.326Z,22.35
2023-02-14T09:29:43.413Z,22.25
2023-02-14T09:31:51.431Z,22.73
2023-02-14T09:34:14.353Z,21.73
2023-02-14T09:36:22.373Z,17.80
2023-02-14T09:38:27.599Z,18.17
2023-02-14T09:40:36.615Z,17.92
2023-02-14T09:43:02.561Z,16.90
2023-02-14T09:45:14.796Z,16.38
2023-02-14T09:47:31.418Z,16.25
2023-02-14T09:49:42.563Z,17.27
2023-02-14T09:51:55.545Z,17.02
2023-02-14T09:54:06.784Z,16.45
2023-02-14T09:56:22.368Z,16.30
2023-02-14T09:58:36.434Z,15.65
2023-02-14T10:00:50.223Z,16.95
2023-02-14T10:03:06.069Z,17.80
2023-02-14T10:05:23.165Z,17.40
2023-02-14T10:07:39.983Z,18.17
2023-02-14T10:10:00.985Z,19.02
2023-02-14T10:12:17.511Z,16.73
2023-02-14T10:14:29.861Z,19.15
2023-02-14T10:16:53.996Z,19.20
2023-02-14T10:19:09.752Z,18.58
2023-02-14T10:21:27.261Z,19.05
2023-02-14T10:23:37.947Z,19.15
2023-02-14T10:25:51.867Z,18.15
2023-02-14T10:28:04.692Z,19.00
2023-02-14T10:30:16.443Z,17.60
2023-02-14T10:32:31.162Z,16.63
2023-02-14T10:34:46.645Z,18.05
2023-02-14T10:37:11.819Z,18.77
2023-02-14T10:39:46.393Z,15.95
2023-02-14T10:41:58.908Z,20.95
2023-02-14T10:44:23.582Z,17.83
2023-02-14T10:46:39.754Z,17.08
2023-02-14T10:48:58.418Z,17.38
2023-02-14T10:51:15.629Z,17.48
2023-02-14T10:53:34.964Z,19.17
2023-02-14T10:55:50.483Z,16.65
2023-02-14T10:57:59.978Z,16.63
2023-02-14T11:00:19.890Z,16.00
2023-02-14T11:02:33.203Z,18.00
2023-02-14T11:04:42.321Z,18.42
2023-02-14T11:06:51.558Z,16.65
2023-02-14T11:09:02.320Z,16.60
2023-02-14T11:11:20.379Z,17.85
2023-02-14T11:13:34.996Z,18.33
2023-02-14T11:15:43.215Z,17.08
2023-02-14T11:17:52.047Z,18.52
2023-02-14T11:20:02.611Z,19.05
2023-02-14T11:22:10.494Z,19.85
2023-02-14T11:24:31.633Z,19.95
2023-02-14T11:26:40.039Z,18.83
2023-02-14T11:28:56.878Z,19.35
2023-02-14T11:31:05.454Z,18.80
2023-02-14T11:33:16.112Z,18.15
2023-02-14T11:35:27.792Z,18.20
2023-02-14T11:37:42.547Z,20.25
2023-02-14T11:39:55.078Z,18.05
2023-02-14T11:42:04.594Z,18.85
2023-02-14T11:44:22.601Z,20.10
2023-02-14T11:46:36.133Z,20.77
2023-02-14T11:49:01.653Z,19.35
2023-02-14T11:51:14.063Z,18.65
2023-02-14T11:53:26.476Z,17.17
2023-02-14T11:55:37.526Z,18.73
2023-02-14T11:57:45.964Z,17.60
2023-02-14T11:59:56.772Z,19.80
2023-02-14T12:02:15.775Z,19.15
2023-02-14T12:04:30.848Z,19.08
2023-02-14T12:06:39.853Z,20.75
2023-02-14T12:08:48.171Z,18.67
2023-02-14T12:11:08.275Z,19.50
2023-02-14T12:13:27.572Z,20.48
2023-02-14T12:15:40.748Z,17.85
2023-02-14T12:17:52.527Z,18.83
2023-02-14T12:20:06.773Z,20.70
2023-02-14T12:22:19.584Z,19.02
2023-02-14T12:24:35.472Z,17.10
2023-02-14T12:26:49.866Z,18.65
2023-02-14T12:29:06.128Z,19.13
2023-02-14T12:31:15.047Z,17.27
2023-02-14T12:33:26.144Z,19.00
2023-02-14T12:35:47.687Z,17.90
2023-02-14T12:38:05.879Z,18.60
2023-02-14T12:40:24.922Z,19.17
2023-02-14T12:42:52.092Z,17.67
2023-02-14T12:45:07.525Z,18.17
2023-02-14T12:47:22.926Z,18.20
2023-02-14T12:49:58.984Z,19.48
2023-02-14T12:52:30.883Z,17.40
2023-02-14T12:54:52.369Z,17.45
2023-02-14T12:57:07.763Z,18.42
2023-02-14T12:59:29.596Z,18.50
2023-02-14T13:02:23.001Z,17.70
2023-02-14T13:05:02.003Z,17.13
2023-02-14T13:07:20.630Z,18.40
2023-02-14T13:09:38.691Z,17.45
2023-02-14T13:12:02.340Z,17.73
2023-02-14T13:14:29.692Z,16.33
2023-02-14T13:16:47.855Z,16.77
2023-02-14T13:19:02.313Z,15.93
2023-02-14T13:21:15.263Z,15.38
2023-02-14T13:23:30.594Z,16.42
2023-02-14T13:25:42.941Z,16.60
2023-02-14T13:27:51.326Z,15.50
2023-02-14T13:30:06.505Z,14.15
2023-02-14T13:32:18.463Z,14.60
2023-02-14T13:34:33.072Z,14.05
2023-02-14T13:36:41.137Z,14.43
2023-02-14T13:38:52.060Z,15.02
2023-02-14T13:41:01.989Z,18.70
2023-02-14T13:43:10.208Z,18.85
2023-02-14T13:45:48.147Z,19.00
2023-02-14T13:48:06.202Z,18.20
2023-02-14T13:50:23.616Z,19.70
2023-02-14T13:52:45.379Z,20.10
2023-02-14T13:54:53.272Z,19.02
2023-02-14T13:57:02.822Z,18.63
2023-02-14T13:59:29.281Z,18.15
2023-02-14T14:01:40.820Z,19.00
2023-02-14T14:04:39.375Z,19.35
2023-02-14T14:07:22.333Z,21.30
2023-02-14T14:09:58.598Z,21.65
2023-02-14T14:12:06.772Z,21.50
2023-02-14T14:14:36.485Z,20.65
2023-02-14T14:16:59.122Z,18.92
2023-02-14T14:19:42.609Z,21.50
2023-02-14T14:22:04.825Z,22.10
2023-02-14T14:24:25.008Z,19.92
2023-02-14T14:26:40.947Z,22.00
2023-02-14T14:28:49.430Z,21.13
2023-02-14T14:30:57.965Z,21.77
2023-02-14T14:33:17.216Z,21.30
2023-02-14T14:35:29.089Z,19.17
2023-02-14T14:37:39.205Z,19.13
2023-02-14T14:39:53.936Z,21.17
2023-02-14T14:42:09.927Z,20.25
2023-02-14T14:44:18.683Z,20.30
2023-02-14T14:46:26.835Z,21.40
2023-02-14T14:48:40.426Z,22.15
2023-02-14T14:50:52.118Z,21.00
2023-02-14T14:53:03.038Z,20.23
2023-02-14T14:55:19.181Z,20.92
2023-02-14T14:57:27.540Z,20.00
2023-02-14T14:59:38.333Z,21.58
2023-02-14T15:01:48.127Z,21.45
2023-02-14T15:03:56.034Z,20.73
2023-02-14T15:06:18.047Z,21.40
2023-02-14T15:08:35.397Z,20.38
2023-02-14T15:10:43.590Z,23.25
2023-02-14T15:13:05.717Z,20.25
2023-02-14T15:15:15.732Z,21.10
2023-02-14T15:17:27.962Z,19.05
2023-02-14T15:19:41.886Z,22.30
2023-02-14T15:21:53.383Z,19.98
2023-02-14T15:24:01.581Z,19.75
2023-02-14T15:26:10.298Z,20.00
2023-02-14T15:28:30.037Z,20.92
2023-02-14T15:30:39.954Z,21.08
2023-02-14T15:32:49.664Z,21.35
2023-02-14T15:34:58.475Z,20.63
2023-02-14T15:37:11.049Z,20.05
2023-02-14T15:39:19.944Z,20.70
2023-02-14T15:41:28.520Z,21.80
2023-02-14T15:43:40.205Z,21.88
2023-02-14T15:45:51.334Z,19.90
2023-02-14T15:48:02.341Z,19.90
2023-02-14T15:50:17.237Z,20.23
2023-02-14T15:52:27.812Z,20.55
2023-02-14T15:54:40.619Z,19.92
2023-02-14T15:56:51.878Z,20.77
2023-02-14T15:59:07.030Z,20.63
2023-02-14T16:01:15.508Z,20.25
2023-02-14T16:03:26.610Z,19.55
2023-02-14T16:05:34.803Z,21.17
2023-02-14T16:07:58.923Z,22.95
2023-02-14T16:10:26.971Z,20.35
2023-02-14T16:12:38.350Z,20.30
2023-02-14T16:14:46.736Z,21.98
2023-02-14T16:17:02.641Z,21.40
2023-02-14T16:19:34.246Z,21.25
2023-02-14T16:21:42.407Z,20.73
2023-02-14T16:24:14.048Z,22.40
2023-02-14T16:26:21.968Z,22.90
2023-02-14T16:28:32.857Z,21.63
2023-02-14T16:30:43.191Z,22.10
2023-02-14T16:32:55.985Z,21.23
2023-02-14T16:35:04.102Z,22.75
2023-02-14T16:37:21.969Z,22.55
2023-02-14T16:39:36.559Z,23.58
2023-02-14T16:41:47.480Z,23.17
2023-02-14T16:43:56.117Z,21.73
2023-02-14T16:46:04.381Z,24.02
2023-02-14T16:48:12.997Z,23.35
2023-02-14T16:50:22.861Z,22.75
2023-02-14T16:52:33.043Z,21.65
2023-02-14T16:54:43.550Z,23.88
2023-02-14T16:56:56.007Z,24.48
2023-02-14T16:59:04.611Z,22.30
2023-02-14T17:01:12.903Z,23.38
2023-02-14T17:03:20.706Z,24.60
2023-02-14T17:05:29.268Z,23.10
2023-02-14T17:07:37.292Z,25.10
2023-02-14T17:09:54.656Z,25.10
2023-02-14T17:12:06.592Z,23.77
2023-02-14T17:14:16.871Z,25.25
2023-02-14T17:16:25.278Z,23.50
2023-02-14T17:18:35.158Z,26.33
2023-02-14T17:20:43.862Z,25.98
2023-02-14T17:22:52.023Z,25.23
2023-02-14T17:25:02.688Z,24.33
2023-02-14T17:27:11.569Z,26.20
2023-02-14T17:29:19.804Z,25.30
2023-02-14T17:31:28.914Z,24.60
2023-02-14T17:33:37.661Z,26.27
2023-02-14T17:35:45.662Z,27.60
2023-02-14T17:37:53.653Z,26.48
2023-02-14T17:40:04.356Z,25.38
2023-02-14T17:42:12.511Z,25.88
2023-02-14T17:44:21.068Z,25.67
2023-02-14T17:46:31.744Z,25.40
2023-02-14T17:48:39.699Z,26.92
2023-02-14T17:50:48.017Z,26.60
2023-02-14T17:52:57.364Z,27.02
2023-02-14T17:55:09.156Z,27.75
2023-02-14T17:57:17.038Z,27.05
2023-02-14T17:59:24.902Z,27.02
2023-02-14T18:01:36.364Z,27.30
2023-02-14T18:03:44.775Z,26.67
2023-02-14T18:05:52.626Z,27.48
2023-02-14T18:08:00.616Z,28.23
2023-02-14T18:10:13.420Z,28.65
2023-02-14T18:12:21.560Z,27.17
2023-02-14T18:14:30.764Z,27.75
2023-02-14T18:16:40.827Z,28.58
2023-02-14T18:18:49.791Z,26.80
2023-02-14T18:20:58.349Z,27.45
2023-02-14T18:23:07.623Z,28.45
2023-02-14T18:25:18.470Z,28.52
2023-02-14T18:27:26.334Z,25.55
2023-02-14T18:29:35.065Z,27.75
2023-02-14T18:31:45.381Z,28.30
2023-02-14T18:33:53.990Z,29.80
2023-02-14T18:36:04.900Z,28.08
2023-02-14T18:38:13.410Z,29.98
2023-02-14T18:40:24.234Z,27.88
2023-02-14T18:42:32.204Z,27.58
2023-02-14T18:44:40.207Z,30.08
2023-02-14T18:46:49.805Z,31.08
2023-02-14T18:49:00.004Z,28.30
2023-02-14T18:51:08.994Z,28.00
2023-02-14T18:53:16.944Z,30.33
2023-02-14T18:55:28.923Z,29.83
2023-02-14T18:57:37.686Z,29.27
2023-02-14T18:59:45.594Z,31.00
2023-02-14T19:01:53.652Z,29.25
2023-02-14T19:04:03.588Z,30.25
2023-02-14T19:06:13.238Z,30.33
2023-02-14T19:08:21.299Z,30.95
2023-02-14T19:10:32.209Z,31.33
2023-02-14T19:12:40.172Z,29.98
2023-02-14T19:14:48.659Z,29.45
2023-02-14T19:16:56.592Z,29.80
2023-02-14T19:19:04.853Z,32.80
2023-02-14T19:21:14.430Z,31.50
2023-02-14T19:23:22.346Z,29.40
2023-02-14T19:25:34.640Z,29.45
2023-02-14T19:27:43.150Z,30.00
2023-02-14T19:29:51.822Z,29.65
2023-02-14T19:32:00.255Z,28.17
2023-02-14T19:34:09.800Z,30.42
2023-02-14T19:36:20.234Z,29.13
2023-02-14T19:38:28.050Z,30.23
2023-02-14T19:40:38.735Z,29.33
2023-02-14T19:42:46.815Z,31.73
2023-02-14T19:44:54.996Z,33.03
2023-02-14T19:47:19.235Z,33.65
2023-02-14T19:49:32.572Z,32.63
2023-02-14T19:51:40.520Z,31.58
2023-02-14T19:53:48.866Z,31.80
2023-02-14T19:55:59.419Z,34.45
2023-02-14T19:58:07.624Z,33.70
2023-02-14T20:00:17.664Z,32.75
2023-02-14T20:02:25.853Z,38.15
2023-02-14T20:04:34.070Z,36.00
2023-02-14T20:06:42.703Z,33.33
2023-02-14T20:08:51.291Z,36.03
2023-02-14T20:11:02.156Z,35.95
2023-02-14T20:13:10.266Z,34.30
2023-02-14T20:15:18.484Z,32.05
2023-02-14T20:17:26.477Z,32.75
2023-02-14T20:19:38.916Z,33.95
2023-02-14T20:21:48.513Z,37.08
2023-02-14T20:23:57.613Z,37.67
2023-02-14T20:26:13.660Z,35.08
2023-02-14T20:28:21.599Z,36.70
2023-02-14T20:30:29.786Z,36.90
2023-02-14T20:32:38.284Z,33.28
2023-02-14T20:34:46.246Z,36.17
2023-02-14T20:37:11.261Z,34.58
2023-02-14T20:39:19.579Z,35.13
2023-02-14T20:41:34.470Z,36.63
2023-02-14T20:43:42.843Z,37.38
2023-02-14T20:45:51.133Z,33.55
2023-02-14T20:48:03.382Z,36.90
2023-02-14T20:50:12.555Z,36.58
2023-02-14T20:52:21.492Z,34.13
2023-02-14T20:54:30.863Z,36.95
2023-02-14T20:56:42.032Z,35.10
2023-02-14T20:58:50.140Z,36.45
2023-02-14T21:00:58.290Z,36.22
2023-02-14T21:03:06.669Z,35.65
2023-02-14T21:05:18.545Z,35.40
2023-02-14T21:07:31.070Z,35.75
2023-02-14T21:09:40.033Z,34.95
2023-02-14T21:11:50.814Z,34.83
2023-02-14T21:14:00.210Z,39.08
2023-02-14T21:16:10.244Z,36.17
2023-02-14T21:18:18.404Z,35.25
2023-02-14T21:20:26.355Z,35.00
2023-02-14T21:22:37.118Z,33.05
2023-02-14T21:24:45.701Z,27.05
2023-02-14T21:26:56.272Z,25.73
2023-02-14T21:29:04.148Z,25.35
2023-02-14T21:31:14.461Z,24.02
2023-02-14T21:33:22.479Z,25.02
2023-02-14T21:35:30.696Z,24.83
2023-02-14T21:37:38.987Z,24.60
2023-02-14T21:39:46.942Z,26.63
2023-02-14T21:42:00.856Z,25.75
2023-02-14T21:44:10.609Z,25.88
2023-02-14T21:46:18.548Z,26.75
2023-02-14T21:48:39.025Z,26.13
2023-02-14T21:50:47.065Z,25.52
2023-02-14T21:52:55.125Z,25.30
2023-02-14T21:55:03.319Z,25.27
2023-02-14T21:57:14.474Z,23.98
2023-02-14T21:59:25.006Z,25.67
2023-02-14T22:01:35.182Z,25.35
2023-02-14T22:03:43.363Z,24.00
2023-02-14T22:05:51.187Z,24.75
2023-02-14T22:07:59.276Z,23.65
2023-02-14T22:10:09.613Z,23.48
2023-02-14T22:12:20.431Z,24.48
2023-02-14T22:14:29.339Z,26.13
2023-02-14T22:16:38.331Z,29.13
2023-02-14T22:18:47.450Z,30.23
2023-02-14T22:20:55.366Z,28.90
2023-02-14T22:23:03.560Z,27.65
2023-02-14T22:25:11.710Z,26.05
2023-02-14T22:27:22.386Z,24.60
2023-02-14T22:29:30.332Z,24.25
2023-02-14T22:31:41.059Z,22.67
2023-02-14T22:33:50.320Z,25.08
2023-02-14T22:35:59.276Z,21.98
2023-02-14T22:38:07.457Z,22.75
2023-02-14T22:40:15.932Z,22.38
2023-02-14T22:42:26.524Z,23.88
2023-02-14T22:44:34.617Z,22.20
2023-02-14T22:46:42.888Z,24.00
2023-02-14T22:48:52.669Z,23.45
2023-02-14T22:51:09.115Z,21.60
2023-02-14T22:53:20.044Z,22.88
2023-02-14T22:55:28.533Z,21.50
2023-02-14T22:57:38.940Z,22.67
2023-02-14T22:59:46.937Z,22.20
2023-02-14T23:01:56.352Z,24.65
2023-02-14T23:04:05.870Z,25.02
2023-02-14T23:06:14.709Z,24.92
2023-02-14T23:08:22.627Z,25.15
2023-02-14T23:10:30.581Z,24.80
2023-02-14T23:12:53.448Z,25.45
2023-02-14T23:15:13.968Z,25.65
2023-02-14T23:17:34.128Z,25.13
2023-02-14T23:19:54.443Z,23.40
2023-02-14T23:22:04.041Z,24.40
2023-02-14T23:24:11.865Z,24.75
2023-02-14T23:26:22.407Z,25.75
2023-02-14T23:28:33.334Z,27.08
2023-02-14T23:30:41.401Z,26.15
2023-02-14T23:32:49.747Z,25.00
2023-02-14T23:34:57.950Z,26.65
2023-02-14T23:37:09.182Z,25.95
2023-02-14T23:39:17.246Z,25.10
2023-02-14T23:41:37.468Z,24.58
2023-02-14T23:43:48.566Z,26.05
2023-02-14T23:45:58.913Z,24.73
2023-02-14T23:48:08.122Z,24.95
2023-02-14T23:50:16.161Z,26.48
2023-02-14T23:52:23.894Z,24.60
2023-02-14T23:54:32.064Z,25.33
2023-02-14T23:56:40.752Z,26.05
2023-02-14T23:58:51.734Z,25.23
